Monticello, Mississippi
Current Conditions -  °F | °C
As of 10:53 PM on Monday 22 Dec 2014 (Local Time) from KMCB Reporting Station
Overcast Overcast  
Wind Chill: 66°   Ceiling: 800
Heat Index: 66°   Visibility: 8mi
Dew Point: 63°   Wind: 7mph
Humidity: 90%   Direction: 200°SSW
Pressure: 29.72"   Gusts: NA
Location:  31.55°N, 90.11°W
Report Text: KMCB 230453Z AUTO 20006KT 8SM BKN008 BKN013 OVC041 19/17 A2972 RMK AO2 SLP061 T01890172
Loading
Personal Weather Stations






























Interactive Weather Map New forecast layout! Learn more

10-Day Weather Forecast

Advertisements
Track Severe Weather on mobile